Time;durP1;ratioP1;P1;durP2;ratioP2;P2;SDS_P1;SDS_P2;PMS_P1;PMS_P2;Temp;Humidity;BMP_temperature;BMP_pressure;BME280_temperature;BME280_humidity;BME280_pressure;Samples;Min_cycle;Max_cycle;Signal;HPM_P1;HPM_P2
2021/07/18 00:00:57;;;;;;;7.03;2.15;;;15.40;99.90;;;;;;5048768;28;19928;-64
2021/07/18 00:03:22;;;;;;;;;;;15.30;99.90;;;;;;5062663;28;20079;-64
2021/07/18 00:05:48;;;;;;;7.53;2.10;;;15.30;99.90;;;;;;5061862;28;20351;-64
2021/07/18 00:08:13;;;;;;;;;;;15.30;99.90;;;;;;5078165;28;20841;-64
2021/07/18 00:10:39;;;;;;;6.82;2.28;;;15.30;99.90;;;;;;5057191;28;20281;-63
2021/07/18 00:13:04;;;;;;;;;;;15.30;99.90;;;;;;5042683;28;20113;-62
2021/07/18 00:15:30;;;;;;;4.68;2.20;;;15.20;99.90;;;;;;5097025;28;19917;-64
2021/07/18 00:17:56;;;;;;;;;;;15.10;99.90;;;;;;5039529;28;20037;-64
2021/07/18 00:20:22;;;;;;;7.32;3.00;;;15.20;99.90;;;;;;5033639;28;20443;-65
2021/07/18 00:22:48;;;;;;;7.53;2.78;;;15.20;99.90;;;;;;5047747;28;20033;-65
2021/07/18 00:25:14;;;;;;;;;;;15.30;99.90;;;;;;5049697;28;20044;-64
2021/07/18 00:27:40;;;;;;;8.38;2.90;;;15.30;99.90;;;;;;5049403;28;19916;-64
2021/07/18 00:30:06;;;;;;;;;;;15.30;99.90;;;;;;5049562;28;20044;-64
2021/07/18 00:32:32;;;;;;;4.55;2.10;;;15.30;99.90;;;;;;5047988;28;19917;-66
2021/07/18 00:34:57;;;;;;;;;;;15.30;99.90;;;;;;5049550;28;20048;-64
2021/07/18 00:37:23;;;;;;;6.30;2.72;;;15.30;99.90;;;;;;5038829;28;20035;-65
2021/07/18 00:39:48;;;;;;;;;;;15.30;99.90;;;;;;5037923;28;20492;-64
2021/07/18 00:42:18;;;;;;;11.57;3.00;;;15.20;99.90;;;;;;5028537;28;20024;-64
2021/07/18 00:44:44;;;;;;;5.95;3.30;;;15.30;99.90;;;;;;5029198;28;20095;-64
2021/07/18 00:47:09;;;;;;;;;;;15.20;99.90;;;;;;5028768;28;20133;-64
2021/07/18 00:49:37;;;;;;;6.10;3.05;;;15.20;99.90;;;;;;5028697;28;20016;-64
2021/07/18 00:52:04;;;;;;;5.65;3.03;;;15.20;99.90;;;;;;5027095;28;20124;-64
2021/07/18 00:54:29;;;;;;;6.30;2.47;;;15.20;99.90;;;;;;5028724;28;20516;-64
2021/07/18 00:56:57;;;;;;;;;;;15.20;99.90;;;;;;5029287;28;20034;-64
2021/07/18 00:59:23;;;;;;;8.23;2.83;;;15.20;99.90;;;;;;5028199;28;19917;-64
2021/07/18 01:01:50;;;;;;;12.32;3.30;;;15.20;99.90;;;;;;5040523;28;20049;-65
2021/07/18 01:04:16;;;;;;;12.60;4.07;;;15.20;99.90;;;;;;5048836;28;20043;-64
2021/07/18 01:06:42;;;;;;;6.95;2.92;;;15.20;99.90;;;;;;5047358;28;20051;-63
2021/07/18 01:09:07;;;;;;;;;;;15.20;99.90;;;;;;5048414;28;20143;-64
2021/07/18 01:11:33;;;;;;;8.13;4.00;;;15.20;99.90;;;;;;5047694;28;19917;-64
2021/07/18 01:13:58;;;;;;;;;;;15.10;99.90;;;;;;5048166;28;20052;-64
2021/07/18 01:16:24;;;;;;;5.18;2.78;;;15.00;99.90;;;;;;5047182;28;19924;-64
2021/07/18 01:18:49;;;;;;;;;;;15.10;99.90;;;;;;5048591;28;20036;-64
2021/07/18 01:21:16;;;;;;;6.53;3.08;;;15.10;99.90;;;;;;5046727;28;19920;-64
2021/07/18 01:23:42;;;;;;;6.93;3.72;;;15.10;99.90;;;;;;5048145;28;20037;-64
2021/07/18 01:26:07;;;;;;;;;;;15.10;99.90;;;;;;5047373;28;20048;-64
2021/07/18 01:28:33;;;;;;;4.85;2.17;;;15.00;99.90;;;;;;5047599;28;19920;-63
2021/07/18 01:30:59;;;;;;;;;;;15.00;99.90;;;;;;5047020;28;20666;-64
2021/07/18 01:33:24;;;;;;;8.63;2.25;;;15.10;99.90;;;;;;5046993;28;19921;-64
2021/07/18 01:35:50;;;;;;;;;;;15.00;99.90;;;;;;5048162;28;20047;-64
2021/07/18 01:38:15;;;;;;;10.02;3.78;;;15.00;99.90;;;;;;5047994;28;19930;-64
2021/07/18 01:40:41;;;;;;;;;;;15.00;99.90;;;;;;5047875;28;20052;-64
2021/07/18 01:43:07;;;;;;;7.07;2.15;;;14.90;99.90;;;;;;5047442;28;20414;-64
2021/07/18 01:45:32;;;;;;;;;;;14.90;99.90;;;;;;5047117;28;20045;-65
2021/07/18 01:47:58;;;;;;;7.45;1.92;;;14.80;99.90;;;;;;5048438;28;19917;-65
2021/07/18 01:50:24;;;;;;;;;;;14.80;99.90;;;;;;5046372;28;20094;-64
2021/07/18 01:52:49;;;;;;;4.50;2.15;;;14.80;99.90;;;;;;5046837;28;19920;-64
2021/07/18 01:55:18;;;;;;;;;;;14.80;99.90;;;;;;5046847;28;20123;-63
2021/07/18 01:57:44;;;;;;;5.97;2.40;;;14.80;99.90;;;;;;5047749;28;19917;-64
2021/07/18 02:00:11;;;;;;;;;;;14.80;99.90;;;;;;5047781;28;20114;-65
2021/07/18 02:02:40;;;;;;;8.27;2.00;;;14.60;99.90;;;;;;5046157;28;20534;-64
2021/07/18 02:05:07;;;;;;;4.60;2.15;;;14.60;99.90;;;;;;5046895;28;20048;-63
2021/07/18 02:07:33;;;;;;;5.60;2.22;;;14.60;99.90;;;;;;5045700;28;20127;-64
2021/07/18 02:09:59;;;;;;;;;;;14.60;99.90;;;;;;5062510;28;20070;-64
2021/07/18 02:12:24;;;;;;;9.13;2.42;;;14.50;99.90;;;;;;5048291;28;19927;-64
2021/07/18 02:14:50;;;;;;;;;;;14.40;99.90;;;;;;5047839;28;20111;-64
2021/07/18 02:17:15;;;;;;;5.10;2.10;;;14.40;99.90;;;;;;5030176;28;19917;-64
2021/07/18 02:19:41;;;;;;;;;;;14.40;99.90;;;;;;5027068;28;20099;-64
2021/07/18 02:22:11;;;;;;;4.60;1.90;;;14.30;99.90;;;;;;5027228;28;19956;-64
2021/07/18 02:24:37;;;;;;;7.60;2.85;;;14.30;99.90;;;;;;5028072;28;20037;-65
2021/07/18 02:27:02;;;;;;;;;;;14.40;99.90;;;;;;5028452;28;20408;-64
2021/07/18 02:29:28;;;;;;;14.73;8.93;;;14.50;99.90;;;;;;5026978;28;19917;-64
2021/07/18 02:31:54;;;;;;;;;;;14.50;99.90;;;;;;5040889;28;20452;-64
2021/07/18 02:34:20;;;;;;;8.45;4.22;;;14.60;99.90;;;;;;5046599;28;20334;-64
2021/07/18 02:36:45;;;;;;;;;;;14.50;99.90;;;;;;5047541;28;20111;-64
2021/07/18 02:39:11;;;;;;;5.15;2.60;;;14.60;99.90;;;;;;5057299;28;19995;-63
2021/07/18 02:41:36;;;;;;;;;;;14.50;99.90;;;;;;5046830;28;20394;-64
2021/07/18 02:44:06;;;;;;;8.95;3.08;;;14.40;99.90;;;;;;5046281;28;19964;-65
2021/07/18 02:46:32;;;;;;;7.15;2.28;;;14.30;99.90;;;;;;5034807;28;20684;-64
2021/07/18 02:48:58;;;;;;;6.75;2.33;;;14.30;99.90;;;;;;5025370;28;20233;-65
2021/07/18 02:51:24;;;;;;;;;;;14.30;99.90;;;;;;5026518;28;20100;-63
2021/07/18 02:53:49;;;;;;;7.20;2.45;;;14.30;99.90;;;;;;5027218;28;20518;-64
2021/07/18 02:56:15;;;;;;;;;;;14.30;99.90;;;;;;5026482;28;20073;-64
2021/07/18 02:58:41;;;;;;;4.43;2.60;;;14.30;99.90;;;;;;5026964;28;19921;-64
2021/07/18 03:01:06;;;;;;;;;;;14.30;99.90;;;;;;5034154;28;20045;-65
2021/07/18 03:03:32;;;;;;;4.68;2.28;;;14.30;99.90;;;;;;5046356;28;19932;-64
2021/07/18 03:05:57;;;;;;;;;;;14.10;99.90;;;;;;5047144;28;20795;-64
2021/07/18 03:08:23;;;;;;;9.85;2.67;;;14.10;99.90;;;;;;5046258;28;19920;-65
2021/07/18 03:10:48;;;;;;;;;;;14.10;99.90;;;;;;5040558;28;20573;-66
2021/07/18 03:13:14;;;;;;;5.60;2.17;;;14.10;99.90;;;;;;5026559;28;20289;-64
2021/07/18 03:15:39;;;;;;;;;;;14.20;99.90;;;;;;5034922;28;20794;-65
2021/07/18 03:18:06;;;;;;;5.70;2.38;;;14.30;99.90;;;;;;5045985;28;19917;-64
2021/07/18 03:20:33;;;;;;;6.18;2.65;;;14.20;99.90;;;;;;5046268;28;20120;-64
2021/07/18 03:22:59;;;;;;;3.97;2.50;;;14.20;99.90;;;;;;5046857;28;20489;-64
2021/07/18 03:25:24;;;;;;;;;;;14.20;99.90;;;;;;5046043;28;20120;-64
2021/07/18 03:27:50;;;;;;;5.07;2.97;;;14.20;99.90;;;;;;5045659;28;20319;-64
2021/07/18 03:30:17;;;;;;;;;;;14.20;99.90;;;;;;5045668;28;20033;-64
2021/07/18 03:32:43;;;;;;;7.05;2.90;;;14.10;99.90;;;;;;5046640;28;19921;-65
2021/07/18 03:35:09;;;;;;;;;;;14.10;99.90;;;;;;5046950;28;20135;-63
2021/07/18 03:37:36;;;;;;;9.70;2.80;;;14.00;99.90;;;;;;5046814;28;20007;-64
2021/07/18 03:40:09;;;;;;;6.85;2.85;;;14.00;99.90;;;;;;5045873;28;20041;-62
2021/07/18 03:42:36;;;;;;;11.10;3.40;;;14.00;99.90;;;;;;5046095;28;20049;-63
2021/07/18 03:45:01;;;;;;;12.10;3.58;;;14.00;99.90;;;;;;5045900;28;20048;-63
2021/07/18 03:47:27;;;;;;;;;;;14.00;99.90;;;;;;5046441;28;20456;-62
2021/07/18 03:49:53;;;;;;;7.10;3.65;;;14.00;99.90;;;;;;5046206;28;19966;-62
2021/07/18 03:52:18;;;;;;;;;;;14.10;99.90;;;;;;5047457;28;20095;-64
2021/07/18 03:54:44;;;;;;;6.88;3.22;;;14.10;99.90;;;;;;5048561;28;19921;-63
2021/07/18 03:57:09;;;;;;;;;;;14.10;99.90;;;;;;5050320;28;20033;-63
2021/07/18 03:59:35;;;;;;;7.60;4.43;;;14.10;99.90;;;;;;5044551;28;19920;-63
2021/07/18 04:02:00;;;;;;;;;;;14.20;99.90;;;;;;5049568;28;20037;-63
2021/07/18 04:04:26;;;;;;;10.60;4.40;;;14.20;99.90;;;;;;5048962;28;19916;-62
2021/07/18 04:06:52;;;;;;;5.88;4.03;;;14.30;99.90;;;;;;5045191;28;20158;-63
2021/07/18 04:09:17;;;;;;;;;;;14.30;99.90;;;;;;5048916;28;20554;-64
2021/07/18 04:11:43;;;;;;;8.00;3.47;;;14.30;99.90;;;;;;5048454;28;20383;-63
2021/07/18 04:14:08;;;;;;;;;;;14.40;99.90;;;;;;5050088;28;20755;-64
2021/07/18 04:16:34;;;;;;;7.55;3.10;;;14.40;99.90;;;;;;5048634;28;20079;-63
2021/07/18 04:18:59;;;;;;;;;;;14.50;99.90;;;;;;5048971;28;20064;-64
2021/07/18 04:21:25;;;;;;;7.82;3.33;;;14.40;99.90;;;;;;5034667;28;20017;-63
2021/07/18 04:23:51;;;;;;;;;;;14.50;99.90;;;;;;5044894;28;20041;-63
2021/07/18 04:26:17;;;;;;;5.03;3.17;;;14.50;99.90;;;;;;5028510;28;20421;-63
2021/07/18 04:28:43;;;;;;;;;;;14.60;99.90;;;;;;5029392;28;20052;-63
2021/07/18 04:31:09;;;;;;;3.60;2.83;;;14.60;99.90;;;;;;5046380;28;19920;-65
2021/07/18 04:33:35;;;;;;;;;;;14.70;99.90;;;;;;5047816;28;20757;-64
2021/07/18 04:36:00;;;;;;;3.90;2.90;;;14.70;99.90;;;;;;5048709;28;19959;-64
2021/07/18 04:38:26;;;;;;;;;;;14.80;99.90;;;;;;5046612;28;20051;-66
2021/07/18 04:40:51;;;;;;;6.07;3.58;;;14.90;99.90;;;;;;5048292;28;19921;-64
2021/07/18 04:43:17;;;;;;;;;;;14.90;99.90;;;;;;5048624;28;20112;-64
2021/07/18 04:45:43;;;;;;;10.35;5.28;;;15.00;99.90;;;;;;5048955;28;20007;-65
2021/07/18 04:48:09;;;;;;;16.73;9.75;;;15.10;99.90;;;;;;5047806;28;20045;-65
2021/07/18 04:50:35;;;;;;;;;;;15.10;99.90;;;;;;5047961;28;20059;-63
2021/07/18 04:53:00;;;;;;;13.70;8.35;;;15.20;99.90;;;;;;5046970;28;20411;-64
2021/07/18 04:55:26;;;;;;;;;;;15.20;99.90;;;;;;5048630;28;20120;-64
2021/07/18 04:57:52;;;;;;;12.05;5.38;;;15.20;99.90;;;;;;5046664;28;19920;-63
2021/07/18 05:00:19;;;;;;;;;;;15.40;99.90;;;;;;5047157;28;20499;-62
2021/07/18 05:02:45;;;;;;;10.43;7.35;;;15.30;99.90;;;;;;5049105;28;19970;-64
2021/07/18 05:05:12;;;;;;;;;;;15.40;99.90;;;;;;5048038;28;20044;-63
2021/07/18 05:07:56;;;;;;;12.95;5.90;;;15.40;99.90;;;;;;5074704;28;19920;-62
2021/07/18 05:10:24;;;;;;;8.25;5.05;;;15.50;99.90;;;;;;5048203;28;20045;-63
2021/07/18 05:12:53;;;;;;;6.72;3.90;;;15.60;99.90;;;;;;5048346;28;20543;-63
2021/07/18 05:15:20;;;;;;;4.93;3.65;;;15.70;99.90;;;;;;5047464;28;20517;-63
2021/07/18 05:17:46;;;;;;;6.20;3.63;;;15.80;99.90;;;;;;5048409;28;20047;-64
2021/07/18 05:20:12;;;;;;;;;;;15.90;99.90;;;;;;5049192;28;20041;-66
2021/07/18 05:22:38;;;;;;;8.25;3.47;;;16.10;99.90;;;;;;5050121;28;19917;-64
2021/07/18 05:25:05;;;;;;;;;;;16.40;99.90;;;;;;5049281;28;20041;-64
2021/07/18 05:27:31;;;;;;;9.40;4.80;;;16.40;99.90;;;;;;5048878;28;20028;-66
2021/07/18 05:29:56;;;;;;;;;;;16.40;99.90;;;;;;5048351;28;20132;-65
2021/07/18 05:32:23;;;;;;;8.60;3.35;;;16.50;99.90;;;;;;5047965;28;19924;-64
2021/07/18 05:34:48;;;;;;;5.10;2.72;;;16.50;99.90;;;;;;5048296;28;20049;-65
2021/07/18 05:37:14;;;;;;;;;;;16.50;99.90;;;;;;5046295;28;20409;-64
2021/07/18 05:39:39;;;;;;;4.68;2.55;;;16.40;99.90;;;;;;5046903;28;19920;-64
2021/07/18 05:42:05;;;;;;;4.20;2.55;;;16.40;99.90;;;;;;5047484;28;20516;-65
2021/07/18 05:44:31;;;;;;;;;;;16.50;99.90;;;;;;5048406;28;20552;-63
2021/07/18 05:46:57;;;;;;;5.47;2.63;;;16.40;99.90;;;;;;5047370;28;19951;-63
2021/07/18 05:49:23;;;;;;;;;;;16.60;99.90;;;;;;5047801;28;20267;-63
2021/07/18 05:51:49;;;;;;;7.80;2.85;;;16.60;99.90;;;;;;5047218;28;19916;-63
2021/07/18 05:54:14;;;;;;;;;;;16.70;99.90;;;;;;5046851;28;20099;-63
2021/07/18 05:56:40;;;;;;;6.55;3.95;;;16.80;99.90;;;;;;5043769;28;20273;-64
2021/07/18 05:59:06;;;;;;;;;;;16.90;99.90;;;;;;5040774;28;20074;-66
2021/07/18 06:01:31;;;;;;;3.40;2.15;;;16.80;99.90;;;;;;5043571;28;19921;-65
2021/07/18 06:03:57;;;;;;;;;;;16.70;99.90;;;;;;5046561;28;20036;-65
2021/07/18 06:06:22;;;;;;;5.47;2.80;;;16.70;99.90;;;;;;5047172;28;19945;-66
2021/07/18 06:08:48;;;;;;;;;;;16.80;99.90;;;;;;5046917;28;20037;-66
2021/07/18 06:11:14;;;;;;;6.95;1.80;;;16.70;99.90;;;;;;5047553;28;19974;-66
2021/07/18 06:13:40;;;;;;;;;;;16.80;99.90;;;;;;5048291;28;20052;-66
2021/07/18 06:16:05;;;;;;;2.67;1.65;;;16.80;99.90;;;;;;5046773;28;20428;-60
2021/07/18 06:18:31;;;;;;;;;;;16.80;99.90;;;;;;5046946;28;20041;-65
2021/07/18 06:20:57;;;;;;;6.78;2.92;;;16.80;99.90;;;;;;5045968;28;20497;-64
2021/07/18 06:23:23;;;;;;;;;;;16.90;99.90;;;;;;5047229;28;20041;-66
2021/07/18 06:25:48;;;;;;;3.97;2.40;;;17.10;99.90;;;;;;5047896;28;20338;-64
2021/07/18 06:28:14;;;;;;;;;;;17.10;99.90;;;;;;5043959;28;20045;-65
2021/07/18 06:30:39;;;;;;;6.10;1.92;;;17.10;99.90;;;;;;5038271;28;19966;-63
2021/07/18 06:33:05;;;;;;;3.33;2.08;;;17.20;99.90;;;;;;5047052;28;20049;-66
2021/07/18 06:35:31;;;;;;;6.57;2.80;;;17.20;99.90;;;;;;5047019;28;20509;-67
2021/07/18 06:37:56;;;;;;;5.68;2.13;;;17.40;99.90;;;;;;5047132;28;20075;-65
2021/07/18 06:40:22;;;;;;;;;;;17.40;99.90;;;;;;5047345;28;20497;-66
2021/07/18 06:42:47;;;;;;;9.25;3.22;;;17.30;99.90;;;;;;5046991;28;19917;-65
2021/07/18 06:45:13;;;;;;;;;;;17.30;99.90;;;;;;5042681;28;20678;-63
2021/07/18 06:47:40;;;;;;;6.00;3.08;;;17.30;99.90;;;;;;5046350;28;19931;-62
2021/07/18 06:50:06;;;;;;;6.28;3.17;;;17.40;99.90;;;;;;5046946;28;20055;-65
2021/07/18 06:52:32;;;;;;;7.88;3.75;;;17.30;99.90;;;;;;5042756;28;20049;-65
2021/07/18 06:54:58;;;;;;;;;;;17.20;99.90;;;;;;5039576;28;20048;-66
2021/07/18 06:57:24;;;;;;;10.05;4.15;;;17.00;99.90;;;;;;5036987;28;19923;-66
2021/07/18 06:59:53;;;;;;;7.13;3.58;;;17.00;99.90;;;;;;5044579;28;20061;-63
2021/07/18 07:02:19;;;;;;;;;;;17.10;99.90;;;;;;5043868;28;20207;-64
2021/07/18 07:04:45;;;;;;;6.20;3.60;;;17.10;99.90;;;;;;5028513;28;19928;-65
2021/07/18 07:07:10;;;;;;;8.82;3.95;;;17.20;99.90;;;;;;5045140;28;20037;-65
2021/07/18 07:09:36;;;;;;;5.93;3.30;;;17.20;99.90;;;;;;5045886;28;20120;-65
2021/07/18 07:12:02;;;;;;;7.00;3.45;;;17.20;99.90;;;;;;5046183;28;20542;-65
2021/07/18 07:14:28;;;;;;;8.65;3.83;;;17.20;99.90;;;;;;5045664;28;20563;-64
2021/07/18 07:16:54;;;;;;;;;;;17.20;99.90;;;;;;5045208;28;20088;-66
2021/07/18 07:19:20;;;;;;;12.23;3.25;;;17.20;99.90;;;;;;5079285;28;20015;-65
2021/07/18 07:21:46;;;;;;;7.00;2.70;;;17.30;99.90;;;;;;5044336;28;20049;-65
2021/07/18 07:24:11;;;;;;;;;;;17.30;99.90;;;;;;5045815;28;20501;-64
2021/07/18 07:26:37;;;;;;;4.35;2.53;;;17.40;99.90;;;;;;5036485;28;20432;-67
2021/07/18 07:29:04;;;;;;;5.28;2.83;;;17.50;99.90;;;;;;5048065;28;20043;-68
2021/07/18 07:31:30;;;;;;;5.22;2.90;;;17.50;99.90;;;;;;5049527;28;20041;-65
2021/07/18 07:33:56;;;;;;;5.80;2.92;;;17.50;99.90;;;;;;5050751;28;20672;-66
2021/07/18 07:36:22;;;;;;;;;;;17.50;99.90;;;;;;5050681;28;20059;-63
2021/07/18 07:38:47;;;;;;;5.68;2.83;;;17.60;99.90;;;;;;5049381;28;19947;-65
2021/07/18 07:41:13;;;;;;;;;;;17.50;99.90;;;;;;5051175;28;20047;-64
2021/07/18 07:43:39;;;;;;;5.10;2.40;;;17.60;99.90;;;;;;5050635;28;20364;-64
2021/07/18 07:46:05;;;;;;;4.28;2.58;;;17.70;99.90;;;;;;5048700;28;20365;-66
2021/07/18 07:48:31;;;;;;;;;;;17.80;99.90;;;;;;5050112;28;20913;-67
2021/07/18 07:50:57;;;;;;;6.97;2.30;;;17.90;99.90;;;;;;5049915;28;20003;-66
2021/07/18 07:53:23;;;;;;;4.57;2.30;;;18.00;99.90;;;;;;5049596;28;20048;-66
2021/07/18 07:55:49;;;;;;;7.25;2.55;;;18.10;99.90;;;;;;5049844;28;20322;-65
2021/07/18 07:58:14;;;;;;;;;;;18.20;99.90;;;;;;5049736;28;20856;-66
2021/07/18 08:00:41;;;;;;;6.88;2.33;;;18.30;99.90;;;;;;5050416;28;19927;-66
2021/07/18 08:03:07;;;;;;;3.67;2.38;;;18.50;99.90;;;;;;5049959;28;20087;-65
2021/07/18 08:05:32;;;;;;;;;;;19.10;99.90;;;;;;5049786;28;20443;-65
2021/07/18 08:07:58;;;;;;;4.20;2.28;;;19.30;99.90;;;;;;5050314;28;20406;-66
2021/07/18 08:10:24;;;;;;;8.82;2.67;;;19.30;99.90;;;;;;5049576;28;20076;-65
2021/07/18 08:12:50;;;;;;;4.93;2.28;;;19.10;99.90;;;;;;5041221;28;20481;-66
2021/07/18 08:15:18;;;;;;;5.40;2.70;;;19.20;99.90;;;;;;5047703;28;20094;-66
2021/07/18 08:17:44;;;;;;;5.70;2.50;;;19.30;99.90;;;;;;5050231;28;20044;-65
2021/07/18 08:20:19;;;;;;;6.75;2.97;;;19.50;99.90;;;;;;5048759;28;20072;-64
2021/07/18 08:22:46;;;;;;;6.07;2.70;;;19.90;99.90;;;;;;5042447;28;20076;-66
2021/07/18 08:25:14;;;;;;;5.13;2.20;;;19.80;99.90;;;;;;5046778;28;20037;-65
2021/07/18 08:27:40;;;;;;;6.78;2.80;;;19.80;99.90;;;;;;5050316;28;20539;-65
2021/07/18 08:30:07;;;;;;;5.88;3.08;;;19.90;99.90;;;;;;5049539;28;20048;-66
2021/07/18 08:32:33;;;;;;;8.57;2.67;;;19.70;99.90;;;;;;5048409;28;20715;-66
2021/07/18 08:34:58;;;;;;;;;;;19.70;99.90;;;;;;5050079;28;20044;-64
2021/07/18 08:37:24;;;;;;;6.32;2.40;;;20.00;99.90;;;;;;5049597;28;19917;-66
2021/07/18 08:39:51;;;;;;;4.63;2.33;;;20.70;99.90;;;;;;5048038;28;20052;-66
2021/07/18 08:42:17;;;;;;;3.83;2.45;;;22.20;99.60;;;;;;5047208;28;20126;-66
2021/07/18 08:44:43;;;;;;;5.32;2.35;;;22.40;98.80;;;;;;5048892;28;20080;-66
2021/07/18 08:47:10;;;;;;;4.72;2.22;;;22.80;98.30;;;;;;5048695;28;20053;-65
2021/07/18 08:49:37;;;;;;;7.00;2.95;;;23.60;96.10;;;;;;5047187;28;20090;-64
2021/07/18 08:52:03;;;;;;;4.70;2.20;;;24.10;93.50;;;;;;5047818;28;20323;-64
2021/07/18 08:54:31;;;;;;;4.85;2.40;;;24.00;93.50;;;;;;5048707;28;20730;-65
2021/07/18 08:57:00;;;;;;;4.15;2.38;;;23.90;94.90;;;;;;5047389;28;20047;-65
2021/07/18 08:59:26;;;;;;;6.63;2.55;;;23.70;95.20;;;;;;5048401;28;20057;-65
2021/07/18 09:01:52;;;;;;;7.07;2.50;;;22.90;96.40;;;;;;5045842;28;20052;-65
2021/07/18 09:04:18;;;;;;;3.72;2.17;;;22.20;96.50;;;;;;5048372;28;20033;-64
2021/07/18 09:06:46;;;;;;;4.32;2.50;;;21.80;97.00;;;;;;5048578;28;20037;-64
2021/07/18 09:09:16;;;;;;;7.70;2.55;;;21.40;99.30;;;;;;5048686;28;20045;-64
2021/07/18 09:11:42;;;;;;;8.23;3.00;;;21.20;99.90;;;;;;5031116;28;20041;-65
2021/07/18 09:14:09;;;;;;;6.07;2.67;;;21.10;99.90;;;;;;5047750;28;20040;-65
2021/07/18 09:16:36;;;;;;;3.80;2.67;;;20.90;99.90;;;;;;5047895;28;20045;-64
2021/07/18 09:19:25;;;;;;;5.03;2.22;;;20.80;99.60;;;;;;5046409;28;20055;-64
2021/07/18 09:22:07;;;;;;;3.53;2.47;;;20.80;99.10;;;;;;5047281;28;20045;-64
2021/07/18 09:24:35;;;;;;;4.82;2.58;;;20.90;99.80;;;;;;5048361;28;20037;-64
2021/07/18 09:27:04;;;;;;;6.35;2.55;;;20.60;99.50;;;;;;5047454;28;20178;-64
2021/07/18 09:29:30;;;;;;;21.05;11.80;;;20.70;99.90;;;;;;5047565;28;20404;-64
2021/07/18 09:32:11;;;;;;;6.68;3.30;;;20.80;99.90;;;;;;5046313;28;20179;-64
2021/07/18 09:34:42;;;;;;;5.72;3.00;;;20.90;99.90;;;;;;5048124;28;20097;-64
2021/07/18 09:37:17;;;;;;;8.82;2.80;;;20.80;99.90;;;;;;5047795;28;20154;-65
2021/07/18 09:40:02;;;;;;;6.18;3.17;;;20.70;99.90;;;;;;5046722;28;20037;-65
2021/07/18 09:42:38;;;;;;;11.20;6.47;;;20.80;99.90;;;;;;5047343;28;20079;-62
2021/07/18 09:45:15;;;;;;;4.88;2.97;;;20.90;99.90;;;;;;5047909;28;20052;-63
2021/07/18 09:48:08;;;;;;;8.38;3.22;;;21.00;99.80;;;;;;5046139;28;20044;-63
2021/07/18 09:50:45;;;;;;;6.32;3.08;;;21.10;99.90;;;;;;5047600;28;20499;-64
2021/07/18 09:53:16;;;;;;;6.80;2.70;;;20.90;99.60;;;;;;5043238;28;20040;-63
2021/07/18 09:55:58;;;;;;;5.38;3.10;;;20.90;99.90;;;;;;5047643;28;20059;-63
2021/07/18 09:58:25;;;;;;;4.18;2.90;;;21.20;99.90;;;;;;5047044;28;20051;-63
2021/07/18 10:00:51;;;;;;;4.78;2.30;;;21.10;99.80;;;;;;5048062;28;20125;-63
2021/07/18 10:03:26;;;;;;;7.28;2.72;;;20.90;99.80;;;;;;5048297;28;20142;-64
2021/07/18 10:06:04;;;;;;;7.95;3.97;;;20.90;99.90;;;;;;5047647;28;20275;-64
2021/07/18 10:08:30;;;;;;;5.75;2.67;;;21.00;99.90;;;;;;5047043;28;20037;-64
2021/07/18 10:10:57;;;;;;;13.13;2.90;;;21.00;99.90;;;;;;5044270;28;20128;-63
2021/07/18 10:13:23;;;;;;;4.40;3.00;;;21.00;99.90;;;;;;5047261;28;20427;-64
2021/07/18 10:15:49;;;;;;;;;;;20.90;99.90;;;;;;5037317;28;20037;-63
2021/07/18 10:18:15;;;;;;;5.95;2.75;;;21.10;99.90;;;;;;5035000;28;19971;-63
2021/07/18 10:20:41;;;;;;;3.95;2.00;;;21.20;99.90;;;;;;5040650;28;20121;-64
2021/07/18 10:23:07;;;;;;;4.47;2.50;;;21.30;99.50;;;;;;5038718;28;20504;-62
2021/07/18 10:25:34;;;;;;;5.85;2.50;;;21.40;99.90;;;;;;5038728;28;20036;-64
2021/07/18 10:28:00;;;;;;;4.70;2.40;;;21.20;99.30;;;;;;5039627;28;20067;-63
2021/07/18 10:30:27;;;;;;;4.80;2.30;;;21.20;99.80;;;;;;5039602;28;20045;-61
2021/07/18 10:32:54;;;;;;;3.40;1.75;;;21.30;99.90;;;;;;5037799;28;20051;-64
2021/07/18 10:35:25;;;;;;;5.50;2.15;;;21.30;99.60;;;;;;5041487;28;20036;-64
2021/07/18 10:37:51;;;;;;;5.22;2.15;;;21.20;99.80;;;;;;5046268;28;20045;-63
2021/07/18 10:40:24;;;;;;;7.22;2.90;;;21.10;99.90;;;;;;5046057;28;20032;-63
2021/07/18 10:42:50;;;;;;;5.22;2.28;;;21.10;99.90;;;;;;5046456;28;20814;-63
2021/07/18 10:45:16;;;;;;;5.60;2.55;;;21.20;99.90;;;;;;5045363;28;20583;-63
2021/07/18 10:48:03;;;;;;;7.45;2.78;;;21.30;99.90;;;;;;5046341;28;20040;-63
2021/07/18 10:50:44;;;;;;;2.45;2.00;;;21.30;99.60;;;;;;5046227;28;20048;-63
2021/07/18 10:53:29;;;;;;;4.10;1.77;;;21.40;99.90;;;;;;5041304;28;20099;-64
2021/07/18 10:55:55;;;;;;;6.82;2.53;;;21.60;99.90;;;;;;5046746;28;20041;-64
2021/07/18 10:58:39;;;;;;;4.13;2.28;;;21.50;98.90;;;;;;5045546;28;20053;-63
2021/07/18 11:01:11;;;;;;;4.43;2.00;;;21.40;99.70;;;;;;5045932;28;20037;-63
2021/07/18 11:03:44;;;;;;;3.88;2.33;;;21.50;99.90;;;;;;5045407;28;20618;-64
2021/07/18 11:06:28;;;;;;;5.68;2.53;;;21.60;99.60;;;;;;5044924;28;20045;-64
2021/07/18 11:09:05;;;;;;;4.60;2.80;;;21.60;98.50;;;;;;5044733;28;20660;-63
2021/07/18 11:11:39;;;;;;;6.82;2.80;;;21.80;99.80;;;;;;5045288;28;20045;-64
2021/07/18 11:14:36;;;;;;;3.95;2.55;;;22.00;99.40;;;;;;5045062;28;20037;-64
2021/07/18 11:17:05;;;;;;;3.60;2.40;;;22.00;99.90;;;;;;5034450;28;20626;-64
2021/07/18 11:19:40;;;;;;;4.70;2.38;;;22.10;99.90;;;;;;5044135;28;20405;-64
2021/07/18 11:22:07;;;;;;;5.75;3.03;;;22.10;99.50;;;;;;5042707;28;20124;-64
2021/07/18 11:24:47;;;;;;;4.40;2.60;;;22.20;99.90;;;;;;5041415;28;20505;-63
2021/07/18 11:27:25;;;;;;;5.70;2.85;;;22.00;98.70;;;;;;5043901;28;20037;-63
2021/07/18 11:29:52;;;;;;;5.28;3.00;;;22.00;99.20;;;;;;5042246;28;20522;-63
2021/07/18 11:32:29;;;;;;;6.38;3.30;;;22.10;99.50;;;;;;5046224;28;20501;-62
2021/07/18 11:34:56;;;;;;;5.20;2.67;;;22.00;98.70;;;;;;5045872;28;20088;-63
2021/07/18 11:37:27;;;;;;;6.65;3.25;;;21.90;98.30;;;;;;5046213;28;20045;-62
2021/07/18 11:40:00;;;;;;;13.05;3.00;;;21.90;99.40;;;;;;5045400;28;20052;-64
2021/07/18 11:42:27;;;;;;;8.00;4.60;;;22.00;99.90;;;;;;5044690;28;20049;-63
2021/07/18 11:44:53;;;;;;;4.57;3.05;;;22.20;99.80;;;;;;5045210;28;20176;-63
2021/07/18 11:47:19;;;;;;;6.00;2.85;;;22.20;99.90;;;;;;5045119;28;20136;-64
2021/07/18 11:49:49;;;;;;;5.00;3.28;;;22.20;99.30;;;;;;5040160;28;20121;-64
2021/07/18 11:52:19;;;;;;;5.90;2.60;;;22.20;99.10;;;;;;5041958;28;20041;-64
2021/07/18 11:54:46;;;;;;;5.95;2.70;;;22.30;99.30;;;;;;5045529;28;20101;-64
2021/07/18 11:57:14;;;;;;;6.82;2.25;;;22.20;99.60;;;;;;5046105;28;20045;-64
2021/07/18 11:59:43;;;;;;;5.28;2.30;;;22.10;99.30;;;;;;5044839;28;20524;-63
2021/07/18 12:02:09;;;;;;;5.60;2.92;;;22.20;99.50;;;;;;5039563;28;20041;-63
2021/07/18 12:04:35;;;;;;;3.45;2.47;;;22.20;98.90;;;;;;5037515;28;20417;-65
2021/07/18 12:07:07;;;;;;;8.75;2.83;;;22.30;99.90;;;;;;5043147;28;20126;-61
2021/07/18 12:09:37;;;;;;;4.30;2.15;;;22.30;99.30;;;;;;5036300;28;20069;-63
2021/07/18 12:12:06;;;;;;;5.40;2.20;;;22.20;98.40;;;;;;5040307;28;20943;-62
2021/07/18 12:14:34;;;;;;;7.50;2.80;;;22.30;99.20;;;;;;5048245;28;20135;-63
2021/07/18 12:17:00;;;;;;;4.70;2.05;;;22.50;99.80;;;;;;5048459;28;20076;-62
2021/07/18 12:19:28;;;;;;;2.97;1.77;;;22.30;98.20;;;;;;5044727;28;20496;-63
2021/07/18 12:21:56;;;;;;;4.55;1.90;;;22.50;98.90;;;;;;5042848;28;20513;-63
2021/07/18 12:24:34;;;;;;;5.25;2.00;;;22.60;99.40;;;;;;5047591;28;20045;-64
2021/07/18 12:27:02;;;;;;;4.15;2.30;;;22.60;98.20;;;;;;5039330;28;20128;-63
2021/07/18 12:29:53;;;;;;;7.53;2.65;;;22.60;99.50;;;;;;5047589;28;20637;-64
2021/07/18 12:32:21;;;;;;;4.90;1.92;;;22.60;98.80;;;;;;5046755;28;20049;-63
2021/07/18 12:34:49;;;;;;;5.05;1.80;;;22.60;99.10;;;;;;5049489;28;20051;-65
2021/07/18 12:37:18;;;;;;;5.05;1.70;;;22.70;97.40;;;;;;5048469;28;20102;-63
2021/07/18 12:39:50;;;;;;;7.70;2.05;;;22.40;97.20;;;;;;5047165;28;20101;-63
2021/07/18 12:42:33;;;;;;;3.88;1.77;;;22.40;98.00;;;;;;5046689;28;20076;-64
2021/07/18 12:45:01;;;;;;;4.25;2.40;;;22.50;98.90;;;;;;5048610;28;20047;-64
2021/07/18 12:47:31;;;;;;;4.60;1.95;;;22.60;98.40;;;;;;5047914;28;20256;-65
2021/07/18 12:50:09;;;;;;;4.35;1.50;;;22.70;97.90;;;;;;5047168;28;20052;-65
2021/07/18 12:52:37;;;;;;;5.30;1.30;;;22.80;97.70;;;;;;5047762;28;20040;-65
2021/07/18 12:55:21;;;;;;;4.28;1.60;;;22.70;98.50;;;;;;5047670;28;20545;-65
2021/07/18 12:57:47;;;;;;;4.28;1.77;;;22.80;98.50;;;;;;5047555;28;20103;-65
2021/07/18 13:00:15;;;;;;;5.10;1.60;;;22.80;97.90;;;;;;5042194;28;20037;-62
2021/07/18 13:02:41;;;;;;;9.15;2.00;;;23.00;98.20;;;;;;5027683;28;20143;-63
2021/07/18 13:05:10;;;;;;;2.47;1.52;;;22.70;96.60;;;;;;5039685;28;20041;-63
2021/07/18 13:07:37;;;;;;;3.90;2.30;;;22.50;97.20;;;;;;5037154;28;20045;-65
2021/07/18 13:10:14;;;;;;;3.38;1.45;;;22.50;97.90;;;;;;5049043;28;20413;-64